Time;durP1;ratioP1;P1;durP2;ratioP2;P2;SDS_P1;SDS_P2;PMS_P1;PMS_P2;Temp;Humidity;BMP_temperature;BMP_pressure;BME280_temperature;BME280_humidity;BME280_pressure;Samples;Min_cycle;Max_cycle;Signal;HPM_P1;HPM_P2
2022/03/25 00:01:14;;;;;;;95.55;39.67;;;;;;;8.19;69.40;102904.31;5022035;28;20029;-75
2022/03/25 00:03:39;;;;;;;96.57;41.05;;;;;;;8.13;69.60;102904.81;5022029;28;20053;-75
2022/03/25 00:06:04;;;;;;;91.13;40.65;;;;;;;8.10;69.83;102903.72;5022063;28;20161;-75
2022/03/25 00:08:30;;;;;;;94.72;39.90;;;;;;;8.01;69.81;102907.50;5022100;28;20348;-75
2022/03/25 00:10:56;;;;;;;94.63;40.13;;;;;;;7.96;70.06;102907.97;5022011;28;20287;-75
2022/03/25 00:13:21;;;;;;;91.97;40.70;;;;;;;7.96;70.18;102905.38;5022409;28;20033;-75
2022/03/25 00:15:47;;;;;;;96.03;41.40;;;;;;;7.91;70.31;102904.19;5021968;28;20338;-75
2022/03/25 00:18:12;;;;;;;99.47;40.92;;;;;;;7.93;70.63;102907.78;5022305;28;20057;-75
2022/03/25 00:20:37;;;;;;;89.25;40.15;;;;;;;7.92;70.31;102903.38;5020967;28;20029;-75
2022/03/25 00:23:03;;;;;;;91.57;40.92;;;;;;;7.90;70.21;102911.06;5022102;28;20028;-75
2022/03/25 00:25:29;;;;;;;94.15;40.45;;;;;;;7.87;70.33;102912.56;5022410;28;20279;-75
2022/03/25 00:27:55;;;;;;;91.35;39.53;;;;;;;7.82;70.11;102912.22;5026051;28;20072;-75
2022/03/25 00:30:20;;;;;;;97.13;39.03;;;;;;;7.77;70.33;102906.72;5022414;28;20037;-75
2022/03/25 00:32:46;;;;;;;90.20;39.95;;;;;;;7.72;70.60;102902.94;5025076;28;20032;-75
2022/03/25 00:35:11;;;;;;;86.50;38.75;;;;;;;7.67;70.30;102906.88;5025732;28;20300;-75
2022/03/25 00:37:37;;;;;;;92.63;39.00;;;;;;;7.60;70.37;102905.59;5024776;28;20046;-75
2022/03/25 00:40:05;;;;;;;80.97;37.35;;;;;;;7.54;70.19;102909.44;5026215;28;20029;-75
2022/03/25 00:42:30;;;;;;;90.38;38.10;;;;;;;7.48;70.20;102910.78;5025799;28;20033;-75
2022/03/25 00:44:56;;;;;;;84.43;36.72;;;;;;;7.47;70.54;102910.69;5026014;28;20026;-75
2022/03/25 00:47:23;;;;;;;85.93;37.17;;;;;;;7.47;70.40;102911.63;5025941;28;20030;-75
2022/03/25 00:49:50;;;;;;;90.97;37.97;;;;;;;7.50;71.24;102903.13;5025633;28;20283;-75
2022/03/25 00:52:16;;;;;;;88.53;39.05;;;;;;;7.51;70.79;102911.81;5025620;28;20097;-75
2022/03/25 00:54:41;;;;;;;88.97;38.40;;;;;;;7.47;70.49;102903.81;5024218;28;20041;-75
2022/03/25 00:57:07;;;;;;;93.78;38.85;;;;;;;7.43;70.45;102896.63;5025871;28;20334;-75
2022/03/25 00:59:32;;;;;;;91.22;39.80;;;;;;;7.41;71.11;102903.38;5025825;28;20172;-75
2022/03/25 01:01:58;;;;;;;89.95;38.05;;;;;;;7.40;70.69;102908.47;5021404;28;20030;-75
2022/03/25 01:04:23;;;;;;;100.05;40.30;;;;;;;7.35;71.42;102905.56;5025631;28;20145;-75
2022/03/25 01:06:49;;;;;;;84.65;36.58;;;;;;;7.27;70.57;102904.09;5025714;28;20088;-75
2022/03/25 01:09:14;;;;;;;81.97;37.25;;;;;;;7.19;70.99;102898.38;5025273;28;20076;-75
2022/03/25 01:11:39;;;;;;;85.13;37.17;;;;;;;7.18;71.18;102900.88;5025002;28;20320;-75
2022/03/25 01:14:05;;;;;;;88.60;37.40;;;;;;;7.17;71.61;102907.75;5025611;28;20042;-75
2022/03/25 01:16:30;;;;;;;87.72;37.13;;;;;;;7.12;71.16;102906.53;5025393;28;20294;-75
2022/03/25 01:18:56;;;;;;;96.50;37.78;;;;;;;7.11;71.62;102899.53;5025136;28;20076;-75
2022/03/25 01:21:21;;;;;;;87.00;37.05;;;;;;;7.11;71.73;102902.13;5024785;28;20041;-75
2022/03/25 01:23:48;;;;;;;90.57;36.85;;;;;;;7.10;71.51;102911.59;5025401;28;20039;-75
2022/03/25 01:26:13;;;;;;;88.63;37.88;;;;;;;7.09;71.65;102908.91;5025091;28;20076;-75
2022/03/25 01:28:39;;;;;;;84.47;37.22;;;;;;;7.03;71.59;102904.19;5024798;28;20287;-75
2022/03/25 01:31:06;;;;;;;94.00;37.03;;;;;;;6.95;71.68;102910.50;5025482;28;20034;-75
2022/03/25 01:33:31;;;;;;;82.63;35.55;;;;;;;6.92;71.67;102899.91;5025230;28;20251;-75
2022/03/25 01:35:57;;;;;;;82.78;36.28;;;;;;;6.86;71.75;102905.56;5025344;28;20026;-75
2022/03/25 01:38:25;;;;;;;85.00;37.15;;;;;;;6.84;71.73;102895.91;5024819;28;20029;-75
2022/03/25 01:40:50;;;;;;;79.28;34.42;;;;;;;6.79;71.70;102903.31;5025423;28;20149;-75
2022/03/25 01:43:16;;;;;;;85.22;36.35;;;;;;;6.75;71.32;102898.72;5023838;28;20064;-75
2022/03/25 01:45:41;;;;;;;87.45;36.58;;;;;;;6.71;71.11;102902.75;5025200;28;20136;-75
2022/03/25 01:48:14;;;;;;;85.18;35.13;;;;;;;6.68;71.14;102894.78;5025057;28;20276;-75
2022/03/25 01:50:42;;;;;;;82.75;34.25;;;;;;;6.59;71.44;102892.41;5017586;28;20223;-75
2022/03/25 01:53:16;;;;;;;80.45;35.15;;;;;;;6.54;71.17;102896.34;5024666;28;20037;-75
2022/03/25 01:55:58;;;;;;;82.03;35.78;;;;;;;6.53;71.39;102901.41;5016776;28;20057;-75
2022/03/25 01:58:26;;;;;;;83.57;35.58;;;;;;;6.49;71.26;102901.97;5023659;28;20048;-77
2022/03/25 02:00:52;;;;;;;81.95;34.83;;;;;;;6.45;71.06;102903.44;5025484;28;20313;-77
2022/03/25 02:03:19;;;;;;;85.20;34.72;;;;;;;6.37;71.71;102905.50;5024452;28;20038;-77
2022/03/25 02:05:45;;;;;;;77.07;34.70;;;;;;;6.36;71.73;102905.38;5023963;28;20025;-77
2022/03/25 02:08:11;;;;;;;76.45;32.53;;;;;;;6.35;71.39;102903.56;5023205;28;20029;-77
2022/03/25 02:10:37;;;;;;;78.57;33.28;;;;;;;6.34;71.01;102907.81;5023981;28;20102;-77
2022/03/25 02:13:03;;;;;;;74.28;33.55;;;;;;;6.30;71.01;102899.72;5022202;28;20040;-77
2022/03/25 02:15:34;;;;;;;83.20;35.45;;;;;;;6.26;70.72;102916.72;5016869;28;20022;-77
2022/03/25 02:18:09;;;;;;;69.47;31.38;;;;;;;6.21;70.32;102912.88;5023129;28;20037;-77
2022/03/25 02:20:37;;;;;;;78.80;33.75;;;;;;;6.15;70.77;102904.66;5018809;28;20037;-77
2022/03/25 02:23:04;;;;;;;76.63;32.55;;;;;;;6.09;70.94;102906.00;5022121;28;20196;-77
2022/03/25 02:25:30;;;;;;;75.03;33.28;;;;;;;6.08;70.83;102899.03;5023396;28;20018;-77
2022/03/25 02:28:00;;;;;;;79.28;33.20;;;;;;;6.08;70.56;102901.63;5020060;28;20165;-75
2022/03/25 02:30:28;;;;;;;79.97;34.13;;;;;;;6.08;71.10;102901.63;5015080;28;20034;-75
2022/03/25 02:32:57;;;;;;;72.78;31.98;;;;;;;6.06;70.63;102894.53;5023589;28;20049;-75
2022/03/25 02:35:40;;;;;;;73.28;31.80;;;;;;;6.02;70.64;102900.25;5023612;28;20026;-75
2022/03/25 02:38:06;;;;;;;74.90;32.22;;;;;;;5.98;70.88;102899.13;5021887;28;20098;-75
2022/03/25 02:40:32;;;;;;;75.75;32.22;;;;;;;5.95;71.11;102898.84;5022018;28;20153;-75
2022/03/25 02:42:57;;;;;;;80.25;32.90;;;;;;;5.95;70.87;102895.38;5022747;28;20052;-75
2022/03/25 02:45:22;;;;;;;77.30;32.88;;;;;;;5.95;70.97;102897.94;5022835;28;20092;-75
2022/03/25 02:47:48;;;;;;;74.13;33.03;;;;;;;5.96;71.02;102902.34;5023028;28;20277;-75
2022/03/25 02:50:14;;;;;;;74.35;32.13;;;;;;;5.99;70.69;102903.50;5022371;28;20350;-75
2022/03/25 02:52:39;;;;;;;72.70;32.25;;;;;;;5.99;70.81;102894.84;5023183;28;20188;-75
2022/03/25 02:55:05;;;;;;;75.50;32.42;;;;;;;5.96;70.78;102892.88;5022732;28;20037;-75
2022/03/25 02:57:30;;;;;;;69.70;31.33;;;;;;;5.93;70.53;102903.00;5023001;28;20026;-75
2022/03/25 02:59:56;;;;;;;74.85;31.05;;;;;;;5.91;70.27;102902.00;5021522;28;20029;-75
2022/03/25 03:02:21;;;;;;;70.80;31.20;;;;;;;5.89;70.55;102896.72;5022858;28;21312;-75
2022/03/25 03:04:47;;;;;;;70.25;31.58;;;;;;;5.88;70.48;102893.97;5022558;28;20093;-75
2022/03/25 03:07:13;;;;;;;70.55;31.15;;;;;;;5.83;70.53;102898.81;5022469;28;20029;-75
2022/03/25 03:09:38;;;;;;;70.38;30.40;;;;;;;5.80;70.52;102895.13;5023328;28;20034;-75
2022/03/25 03:12:04;;;;;;;66.55;29.38;;;;;;;5.79;70.16;102903.66;5022358;28;20036;-75
2022/03/25 03:14:29;;;;;;;72.93;31.60;;;;;;;5.73;70.21;102894.63;5022497;28;20193;-75
2022/03/25 03:16:54;;;;;;;70.70;30.08;;;;;;;5.72;70.01;102899.69;5022566;28;20026;-75
2022/03/25 03:19:19;;;;;;;67.05;29.83;;;;;;;5.69;70.26;102905.53;5022343;28;20042;-75
2022/03/25 03:21:45;;;;;;;63.30;28.10;;;;;;;5.66;70.35;102907.91;5022578;28;20108;-75
2022/03/25 03:24:10;;;;;;;70.75;31.17;;;;;;;5.62;70.40;102903.28;5022860;28;20033;-75
2022/03/25 03:26:36;;;;;;;68.15;29.98;;;;;;;5.61;70.14;102904.03;5022644;28;20049;-75
2022/03/25 03:29:02;;;;;;;66.72;28.05;;;;;;;5.57;69.43;102900.31;5024286;28;20036;-75
2022/03/25 03:31:27;;;;;;;62.80;28.60;;;;;;;5.52;70.00;102895.59;5022767;28;20030;-75
2022/03/25 03:33:52;;;;;;;66.85;30.02;;;;;;;5.48;70.07;102898.72;5021759;28;20097;-75
2022/03/25 03:36:18;;;;;;;64.47;30.23;;;;;;;5.45;70.34;102907.13;5022869;28;20046;-75
2022/03/25 03:38:43;;;;;;;69.30;30.85;;;;;;;5.42;70.47;102903.38;5021732;28;20289;-75
2022/03/25 03:41:08;;;;;;;72.40;31.92;;;;;;;5.40;70.64;102898.09;5015360;28;20026;-75
2022/03/25 03:43:34;;;;;;;70.93;30.77;;;;;;;5.35;70.50;102900.31;5021927;28;20034;-75
2022/03/25 03:45:59;;;;;;;63.42;29.73;;;;;;;5.32;70.33;102896.63;5021589;28;20030;-75
2022/03/25 03:48:24;;;;;;;66.68;29.45;;;;;;;5.28;70.75;102892.88;5022427;28;20033;-75
2022/03/25 03:50:50;;;;;;;63.17;29.65;;;;;;;5.21;70.80;102894.09;5022106;28;20029;-75
2022/03/25 03:53:15;;;;;;;68.60;30.55;;;;;;;5.16;70.83;102899.69;5014482;28;20034;-75
2022/03/25 03:55:40;;;;;;;61.03;28.27;;;;;;;5.14;70.84;102894.41;5022265;28;20052;-75
2022/03/25 03:58:06;;;;;;;66.35;28.50;;;;;;;5.15;70.30;102905.63;5021485;28;20117;-75
2022/03/25 04:00:32;;;;;;;64.75;29.80;;;;;;;5.13;70.70;102896.88;5021885;28;20029;-75
2022/03/25 04:02:57;;;;;;;66.18;29.58;;;;;;;5.09;70.47;102894.81;5021112;28;20306;-75
2022/03/25 04:05:23;;;;;;;68.78;29.02;;;;;;;5.10;70.67;102894.00;5021605;28;20162;-75
2022/03/25 04:07:48;;;;;;;63.85;30.40;;;;;;;5.07;70.54;102893.78;5018263;28;20311;-75
2022/03/25 04:10:15;;;;;;;70.30;30.73;;;;;;;5.04;70.70;102895.34;5022005;28;20042;-75
2022/03/25 04:12:41;;;;;;;68.20;30.40;;;;;;;5.02;70.41;102899.47;5022273;28;20307;-75
2022/03/25 04:15:09;;;;;;;66.93;30.00;;;;;;;5.02;70.49;102901.16;5022027;28;20018;-75
2022/03/25 04:17:36;;;;;;;71.00;31.10;;;;;;;4.99;70.37;102901.81;5020681;28;20030;-75
2022/03/25 04:20:01;;;;;;;63.78;29.23;;;;;;;4.97;70.62;102897.34;5021005;28;20289;-75
2022/03/25 04:22:26;;;;;;;72.22;30.50;;;;;;;4.98;70.55;102904.28;5021434;28;20029;-75
2022/03/25 04:24:53;;;;;;;68.55;30.77;;;;;;;4.94;70.71;102908.31;5021333;28;20064;-75
2022/03/25 04:27:18;;;;;;;69.68;30.25;;;;;;;4.93;70.79;102911.66;5019515;28;20113;-75
2022/03/25 04:29:44;;;;;;;66.63;29.45;;;;;;;4.89;70.50;102909.63;5020901;28;20104;-75
2022/03/25 04:32:09;;;;;;;66.03;30.00;;;;;;;4.83;70.27;102915.19;5017529;28;20307;-75
2022/03/25 04:34:34;;;;;;;64.88;29.23;;;;;;;4.74;70.36;102917.03;5020363;28;20038;-75
2022/03/25 04:37:00;;;;;;;62.95;28.02;;;;;;;4.67;70.60;102925.97;5020492;28;20048;-75
2022/03/25 04:39:25;;;;;;;55.85;26.17;;;;;;;4.60;70.89;102920.19;5021251;28;20030;-75
2022/03/25 04:41:50;;;;;;;61.90;27.80;;;;;;;4.53;71.02;102921.34;5019722;28;20338;-75
2022/03/25 04:44:16;;;;;;;65.80;28.27;;;;;;;4.46;71.00;102913.88;5021638;28;20041;-75
2022/03/25 04:46:41;;;;;;;63.00;27.50;;;;;;;4.39;71.39;102919.31;5019616;28;20101;-75
2022/03/25 04:49:08;;;;;;;57.35;27.30;;;;;;;4.32;71.61;102918.81;5017553;28;20028;-75
2022/03/25 04:51:34;;;;;;;60.08;26.95;;;;;;;4.33;71.48;102917.13;5020555;28;20054;-75
2022/03/25 04:53:59;;;;;;;58.60;27.85;;;;;;;4.30;71.32;102917.81;5021262;28;20128;-75
2022/03/25 04:56:25;;;;;;;64.40;27.35;;;;;;;4.28;71.17;102918.44;5020466;28;20276;-74
2022/03/25 04:58:50;;;;;;;62.33;28.00;;;;;;;4.24;71.20;102924.13;5019533;28;20272;-74
2022/03/25 05:01:15;;;;;;;61.78;28.70;;;;;;;4.19;71.25;102921.16;5020865;28;20291;-74
2022/03/25 05:03:40;;;;;;;66.35;28.38;;;;;;;4.19;71.40;102926.31;5021867;28;20125;-74
2022/03/25 05:06:06;;;;;;;65.55;29.35;;;;;;;4.20;71.26;102928.16;5020095;28;20264;-75
2022/03/25 05:08:31;;;;;;;64.57;27.88;;;;;;;4.18;71.10;102922.81;5020948;28;20121;-74
2022/03/25 05:10:56;;;;;;;66.68;28.40;;;;;;;4.20;71.54;102922.97;5020736;28;20188;-74
2022/03/25 05:13:22;;;;;;;60.78;27.67;;;;;;;4.23;71.38;102923.22;5021193;28;20018;-75
2022/03/25 05:15:47;;;;;;;61.28;28.33;;;;;;;4.23;71.37;102922.31;5021282;28;20053;-75
2022/03/25 05:18:12;;;;;;;69.10;29.08;;;;;;;4.24;70.83;102925.00;5023073;28;20034;-75
2022/03/25 05:20:38;;;;;;;64.05;28.73;;;;;;;4.24;70.67;102930.16;5024296;28;20033;-75
2022/03/25 05:23:03;;;;;;;61.55;28.42;;;;;;;4.24;71.18;102926.69;5024762;28;20030;-75
2022/03/25 05:25:29;;;;;;;68.00;28.42;;;;;;;4.21;71.34;102924.75;5024991;28;20025;-75
2022/03/25 05:27:58;;;;;;;68.10;29.35;;;;;;;4.17;71.22;102920.13;5024259;28;20257;-75
2022/03/25 05:30:26;;;;;;;69.13;28.80;;;;;;;4.16;71.35;102924.38;5024667;28;20049;-75
2022/03/25 05:32:51;;;;;;;66.25;28.98;;;;;;;4.16;71.19;102931.22;5024392;28;20022;-75
2022/03/25 05:35:19;;;;;;;67.70;28.58;;;;;;;4.14;71.54;102932.75;5024214;28;20080;-75
2022/03/25 05:37:44;;;;;;;65.47;28.15;;;;;;;4.14;71.61;102925.94;5024839;28;20025;-75
2022/03/25 05:40:10;;;;;;;68.63;29.55;;;;;;;4.15;71.97;102929.41;5024297;28;20037;-74
2022/03/25 05:42:36;;;;;;;72.90;30.02;;;;;;;4.13;71.70;102934.47;5023528;28;20045;-74
2022/03/25 05:45:04;;;;;;;68.80;29.15;;;;;;;4.10;71.46;102936.78;5024522;28;20057;-74
2022/03/25 05:47:29;;;;;;;74.22;30.25;;;;;;;4.09;71.53;102936.66;5022849;28;20021;-74
2022/03/25 05:49:54;;;;;;;67.30;28.73;;;;;;;4.07;71.41;102938.19;5021580;28;20045;-74
2022/03/25 05:52:20;;;;;;;69.70;28.58;;;;;;;4.03;71.34;102937.03;5024467;28;20041;-74
2022/03/25 05:54:45;;;;;;;69.53;28.00;;;;;;;4.02;71.49;102942.97;5024497;28;20032;-74
2022/03/25 05:57:10;;;;;;;66.95;28.30;;;;;;;4.03;71.63;102946.44;5024166;28;20224;-74
2022/03/25 05:59:36;;;;;;;70.82;28.88;;;;;;;4.02;71.56;102948.13;5024134;28;20025;-74
2022/03/25 06:02:01;;;;;;;66.43;27.88;;;;;;;4.02;71.65;102949.81;5024128;28;20096;-74
2022/03/25 06:04:27;;;;;;;65.03;29.00;;;;;;;4.03;72.24;102944.78;5024240;28;20029;-74
2022/03/25 06:06:53;;;;;;;66.95;29.88;;;;;;;4.05;72.13;102950.97;5023177;28;20072;-74
2022/03/25 06:09:19;;;;;;;58.53;27.48;;;;;;;4.06;72.03;102951.88;5024357;28;20028;-74
2022/03/25 06:11:44;;;;;;;66.03;28.60;;;;;;;4.07;71.93;102948.50;5024180;28;20172;-74
2022/03/25 06:14:10;;;;;;;66.32;28.20;;;;;;;4.08;71.99;102952.91;5018510;28;20025;-74
2022/03/25 06:16:35;;;;;;;62.45;27.77;;;;;;;4.07;72.46;102959.75;5023638;28;20029;-74
2022/03/25 06:19:01;;;;;;;63.65;29.00;;;;;;;4.05;72.35;102958.69;5023763;28;20026;-74
2022/03/25 06:21:26;;;;;;;60.50;27.40;;;;;;;4.04;72.48;102953.41;5022859;28;20022;-74
2022/03/25 06:23:52;;;;;;;61.38;28.63;;;;;;;4.02;72.94;102960.13;5022675;28;20037;-74
2022/03/25 06:26:17;;;;;;;64.93;28.13;;;;;;;4.02;72.95;102965.28;5017486;28;20109;-74
2022/03/25 06:28:43;;;;;;;62.63;27.38;;;;;;;4.00;72.75;102966.06;5023405;28;20131;-74
2022/03/25 06:31:08;;;;;;;60.03;26.80;;;;;;;4.02;73.29;102968.75;5024006;28;20052;-74
2022/03/25 06:33:34;;;;;;;63.53;27.92;;;;;;;4.04;73.48;102969.81;5023949;28;20057;-74
2022/03/25 06:36:00;;;;;;;65.07;27.80;;;;;;;4.06;73.97;102972.53;5023085;28;20283;-74
2022/03/25 06:38:26;;;;;;;65.70;28.90;;;;;;;4.12;74.75;102980.78;5023440;28;20029;-74
2022/03/25 06:40:51;;;;;;;69.57;29.55;;;;;;;4.19;75.33;102988.25;5023195;28;20032;-75
2022/03/25 06:43:16;;;;;;;70.10;29.45;;;;;;;4.25;75.78;102978.44;5017366;28;20179;-75
2022/03/25 06:45:41;;;;;;;73.93;31.25;;;;;;;4.35;75.77;102977.53;5023631;28;20046;-75
2022/03/25 06:48:07;;;;;;;72.90;31.05;;;;;;;4.48;75.65;102974.31;5023791;28;20076;-75
2022/03/25 06:50:32;;;;;;;78.07;32.15;;;;;;;4.70;75.37;102971.78;5022738;28;20037;-75
2022/03/25 06:53:01;;;;;;;78.25;32.70;;;;;;;5.50;73.29;102966.94;5022911;28;20276;-75
2022/03/25 06:55:26;;;;;;;70.82;31.05;;;;;;;6.37;70.01;102972.81;5023413;28;20296;-75
2022/03/25 06:57:52;;;;;;;71.38;31.88;;;;;;;7.26;67.16;102975.81;5023154;28;20034;-75
2022/03/25 07:00:19;;;;;;;68.22;30.70;;;;;;;7.95;65.06;102971.06;5023265;28;20029;-75
2022/03/25 07:02:45;;;;;;;69.80;31.33;;;;;;;8.71;62.69;102974.44;5020996;28;21036;-75
2022/03/25 07:05:12;;;;;;;73.55;32.67;;;;;;;9.50;60.42;102977.75;5022059;28;20256;-75
2022/03/25 07:07:40;;;;;;;70.28;31.05;;;;;;;10.16;58.54;102973.06;5022785;28;20044;-75
2022/03/25 07:10:09;;;;;;;68.43;32.65;;;;;;;10.65;56.70;102985.50;5023016;28;20072;-75
2022/03/25 07:12:35;;;;;;;75.68;34.28;;;;;;;10.99;55.89;102976.09;5021764;28;20029;-75
2022/03/25 07:15:01;;;;;;;74.47;35.00;;;;;;;11.46;54.71;102977.84;5020636;28;20072;-75
2022/03/25 07:17:27;;;;;;;75.10;36.25;;;;;;;11.94;52.96;102980.41;5022502;28;20034;-75
2022/03/25 07:19:52;;;;;;;78.50;36.08;;;;;;;12.48;52.09;102983.16;5022381;28;20026;-75
2022/03/25 07:22:17;;;;;;;81.13;36.72;;;;;;;13.16;50.58;102979.47;5021441;28;20036;-75
2022/03/25 07:24:43;;;;;;;82.05;36.88;;;;;;;13.30;50.20;102979.25;5022380;28;20045;-75
2022/03/25 07:27:08;;;;;;;86.72;38.97;;;;;;;14.01;48.88;102987.72;5021553;28;20275;-75
2022/03/25 07:29:34;;;;;;;90.78;39.42;;;;;;;14.89;46.88;102989.69;5022029;28;20034;-75
2022/03/25 07:31:59;;;;;;;102.50;43.47;;;;;;;15.18;46.00;102986.41;5022872;28;20030;-75
2022/03/25 07:34:24;;;;;;;108.28;44.33;;;;;;;15.26;45.42;102988.50;5021621;28;20060;-75
2022/03/25 07:36:50;;;;;;;108.57;45.33;;;;;;;15.49;44.76;102993.75;5021903;28;20026;-75
2022/03/25 07:39:15;;;;;;;115.75;47.83;;;;;;;15.46;45.08;102989.28;5020618;28;20091;-75
2022/03/25 07:41:40;;;;;;;126.60;49.55;;;;;;;15.41;44.85;102990.84;5021067;28;20030;-75
2022/03/25 07:44:05;;;;;;;138.40;51.55;;;;;;;14.63;45.47;103009.63;5020424;28;20018;-75
2022/03/25 07:46:31;;;;;;;141.63;52.60;;;;;;;13.74;48.37;102999.66;5023292;28;20068;-75
2022/03/25 07:48:56;;;;;;;153.60;55.47;;;;;;;12.93;50.29;103011.50;5021701;28;20280;-75
2022/03/25 07:51:21;;;;;;;156.63;56.88;;;;;;;12.21;50.99;103009.69;5020740;28;20090;-75
2022/03/25 07:53:47;;;;;;;165.10;56.85;;;;;;;11.62;53.99;103014.38;5022529;28;20049;-75
2022/03/25 07:56:12;;;;;;;175.98;58.67;;;;;;;11.21;55.35;103022.53;5019667;28;20032;-75
2022/03/25 07:58:39;;;;;;;176.07;59.65;;;;;;;10.87;57.10;103028.47;5022764;28;20033;-77
2022/03/25 08:01:04;;;;;;;171.57;56.80;;;;;;;10.60;57.81;103029.56;5022618;28;20030;-75
2022/03/25 08:03:30;;;;;;;176.32;57.47;;;;;;;10.46;57.40;103035.66;5022685;28;20091;-75
2022/03/25 08:05:56;;;;;;;166.23;55.22;;;;;;;10.35;58.00;103036.72;5022868;28;20037;-75
2022/03/25 08:08:22;;;;;;;183.52;58.17;;;;;;;10.32;59.71;103037.41;5021965;28;20044;-75
2022/03/25 08:10:49;;;;;;;189.73;58.78;;;;;;;10.25;59.28;103036.16;5022365;28;20033;-75
2022/03/25 08:13:16;;;;;;;174.25;57.78;;;;;;;10.23;58.49;103042.97;5021539;28;20096;-75
2022/03/25 08:15:41;;;;;;;183.55;57.53;;;;;;;10.21;57.83;103047.19;5022000;28;20284;-74
2022/03/25 08:18:10;;;;;;;172.18;56.95;;;;;;;10.22;60.16;103040.25;5009720;28;20049;-74
2022/03/25 08:20:41;;;;;;;179.82;57.10;;;;;;;10.24;59.58;103043.88;5021409;28;20029;-74
2022/03/25 08:27:48;;;;;;;178.43;55.53;;;;;;;10.24;57.19;103049.97;5020800;28;20033;-75
2022/03/25 08:28:45;;;;;;;170.82;55.50;;;;;;;10.33;58.72;103052.25;5022533;28;20049;-75
2022/03/25 08:31:10;;;;;;;177.07;55.28;;;;;;;10.38;58.93;103055.16;5021581;28;20033;-76
2022/03/25 08:33:36;;;;;;;179.32;55.17;;;;;;;10.44;58.95;103059.03;5022594;28;20292;-76
2022/03/25 08:36:02;;;;;;;172.05;54.78;;;;;;;10.48;59.03;103056.59;5021552;28;20180;-75
2022/03/25 08:38:27;;;;;;;176.45;57.38;;;;;;;10.53;57.02;103053.47;5021070;28;20096;-76
2022/03/25 08:40:53;;;;;;;167.43;54.92;;;;;;;10.60;57.92;103060.84;5021497;28;20109;-76
2022/03/25 08:43:18;;;;;;;167.45;55.30;;;;;;;10.67;58.82;103061.19;5021709;28;20034;-76
2022/03/25 08:45:43;;;;;;;170.63;53.38;;;;;;;10.72;58.14;103052.84;5021536;28;20033;-76
2022/03/25 08:48:09;;;;;;;147.93;50.83;;;;;;;10.79;56.83;103056.72;5021728;28;20034;-76
2022/03/25 08:50:34;;;;;;;152.45;50.50;;;;;;;10.87;57.75;103060.66;5021775;28;20041;-76
2022/03/25 08:52:59;;;;;;;157.20;50.58;;;;;;;10.99;58.07;103056.97;5023968;28;20180;-76
2022/03/25 08:55:25;;;;;;;155.50;51.70;;;;;;;11.06;55.95;103066.94;5024628;28;20231;-76
2022/03/25 08:57:50;;;;;;;151.63;49.55;;;;;;;11.12;55.89;103062.97;5024818;28;20041;-76
2022/03/25 09:00:18;;;;;;;153.45;50.83;;;;;;;11.16;54.73;103069.25;5024272;28;20037;-76
2022/03/25 09:02:45;;;;;;;151.30;51.15;;;;;;;11.24;55.90;103057.56;5022305;28;20104;-75
2022/03/25 09:05:12;;;;;;;149.23;49.67;;;;;;;11.36;56.92;103059.06;5022469;28;20033;-75
2022/03/25 09:07:38;;;;;;;159.05;50.22;;;;;;;11.47;55.03;103070.97;5025714;28;20216;-75
2022/03/25 09:10:04;;;;;;;150.70;51.00;;;;;;;11.57;55.00;103064.56;5022278;28;20177;-76
2022/03/25 09:12:30;;;;;;;153.15;50.45;;;;;;;11.71;56.22;103070.56;5023766;28;20030;-76
2022/03/25 09:14:55;;;;;;;151.05;51.08;;;;;;;11.75;53.76;103062.09;5025027;28;20022;-75
2022/03/25 09:17:21;;;;;;;150.55;48.58;;;;;;;11.83;53.20;103058.16;5024050;28;20029;-75
2022/03/25 09:19:46;;;;;;;162.10;51.00;;;;;;;11.91;53.22;103075.16;5025150;28;20065;-76
2022/03/25 09:22:12;;;;;;;156.07;49.95;;;;;;;11.97;52.66;103074.63;5024261;28;20037;-77
2022/03/25 09:24:37;;;;;;;142.88;48.15;;;;;;;12.06;53.11;103072.47;5023663;28;20026;-77
2022/03/25 09:27:03;;;;;;;139.88;45.47;;;;;;;12.16;52.58;103072.16;5024530;28;20051;-76
2022/03/25 09:29:28;;;;;;;144.38;47.33;;;;;;;12.25;51.52;103074.38;5025220;28;20179;-75
2022/03/25 09:31:53;;;;;;;137.45;45.90;;;;;;;12.37;51.06;103073.19;5024534;28;20064;-75
2022/03/25 09:37:03;;;;;;;131.73;43.95;;;;;;;12.57;50.38;103071.63;5020187;28;20049;-75
2022/03/25 09:39:28;;;;;;;141.55;44.63;;;;;;;12.65;51.48;103080.78;5025081;28;20013;-75
2022/03/25 09:41:54;;;;;;;134.07;44.83;;;;;;;12.75;49.95;103071.69;5024287;28;20036;-75
2022/03/25 09:44:19;;;;;;;140.77;43.20;;;;;;;12.83;49.47;103068.63;5024784;28;20223;-75
2022/03/25 09:46:45;;;;;;;141.48;45.00;;;;;;;12.95;50.05;103072.69;5025119;28;20034;-75
2022/03/25 09:49:12;;;;;;;133.50;43.60;;;;;;;13.03;49.58;103069.63;5024963;28;20089;-75
2022/03/25 09:51:37;;;;;;;128.82;43.05;;;;;;;13.06;48.28;103068.84;5024788;28;20025;-75
2022/03/25 09:54:05;;;;;;;130.40;42.05;;;;;;;13.17;49.98;103058.91;5024924;28;20037;-75
2022/03/25 09:56:30;;;;;;;127.45;42.05;;;;;;;13.24;47.30;103061.00;5023548;28;20123;-76
2022/03/25 09:58:56;;;;;;;134.15;42.70;;;;;;;13.35;48.23;103069.41;5023722;28;20292;-76
2022/03/25 10:01:21;;;;;;;124.15;41.80;;;;;;;13.40;45.38;103057.44;5023879;28;20025;-77
2022/03/25 10:03:46;;;;;;;133.05;42.10;;;;;;;13.43;44.90;103061.94;5023269;28;20272;-77
2022/03/25 10:06:13;;;;;;;123.60;40.38;;;;;;;13.49;45.61;103056.97;5023804;28;20056;-77
2022/03/25 10:08:39;;;;;;;124.05;40.53;;;;;;;13.57;45.98;103061.75;5023765;28;20021;-77
2022/03/25 10:11:37;;;;;;;117.93;39.45;;;;;;;13.70;47.53;103058.00;5022615;28;20345;-77
2022/03/25 10:14:14;;;;;;;121.63;38.92;;;;;;;13.84;46.72;103055.09;4974388;28;20053;-77
2022/03/25 10:16:41;;;;;;;110.13;37.10;;;;;;;13.98;44.60;103061.88;5023901;28;20270;-77
2022/03/25 10:19:06;;;;;;;118.28;38.17;;;;;;;14.05;45.37;103056.06;5024305;28;20060;-77
2022/03/25 10:21:49;;;;;;;121.32;39.30;;;;;;;14.12;46.31;103059.88;5023416;28;20026;-78
2022/03/25 10:24:18;;;;;;;111.55;36.38;;;;;;;14.21;43.87;103051.53;5017736;28;21029;-79
2022/03/25 10:26:43;;;;;;;111.05;36.92;;;;;;;14.28;44.36;103048.34;5021761;28;20048;-77
2022/03/25 10:29:22;;;;;;;112.90;36.65;;;;;;;14.42;44.81;103052.47;5022417;28;20037;-78
2022/03/25 10:32:08;;;;;;;126.05;39.05;;;;;;;14.54;45.73;103053.78;5020552;28;20030;-77
2022/03/25 10:34:35;;;;;;;115.97;38.42;;;;;;;14.60;43.31;103048.84;5022383;28;20097;-77
2022/03/25 10:37:02;;;;;;;115.93;37.63;;;;;;;14.64;42.48;103048.13;5022435;28;20033;-77
2022/03/25 10:39:29;;;;;;;116.90;39.28;;;;;;;14.76;43.58;103056.53;5020285;28;20085;-77
2022/03/25 10:41:59;;;;;;;123.70;39.58;;;;;;;14.87;44.12;103050.84;5022512;28;20029;-77
2022/03/25 10:44:42;;;;;;;115.53;36.47;;;;;;;14.93;44.00;103045.81;5019028;28;20063;-77
2022/03/25 10:47:28;;;;;;;103.53;35.67;;;;;;;15.01;44.06;103044.44;5021000;28;20024;-77
2022/03/25 10:49:56;;;;;;;102.75;33.65;;;;;;;15.13;42.92;103041.38;5015251;28;20039;-77
2022/03/25 10:52:34;;;;;;;86.65;30.85;;;;;;;15.19;39.89;103036.38;5010956;28;20045;-77
2022/03/25 10:55:20;;;;;;;104.25;34.47;;;;;;;15.22;41.93;103046.13;5017343;28;20088;-77
2022/03/25 10:57:53;;;;;;;106.38;35.53;;;;;;;15.26;41.40;103041.03;5019116;28;20040;-77
2022/03/25 11:00:20;;;;;;;109.88;35.95;;;;;;;15.34;42.30;103048.31;5023195;28;20100;-77
2022/03/25 11:02:46;;;;;;;108.00;35.92;;;;;;;15.43;41.20;103036.44;5022818;28;20101;-77
2022/03/25 11:05:14;;;;;;;102.65;32.40;;;;;;;15.46;39.02;103031.31;5023444;28;20269;-77
2022/03/25 11:07:43;;;;;;;92.75;31.65;;;;;;;15.48;38.34;103031.38;5018727;28;20053;-77
2022/03/25 11:10:13;;;;;;;107.97;33.70;;;;;;;15.53;38.50;103027.19;5023059;28;20025;-77
2022/03/25 11:12:43;;;;;;;98.25;33.85;;;;;;;15.60;39.60;103034.47;5023407;28;20280;-77
2022/03/25 11:15:16;;;;;;;109.13;34.70;;;;;;;15.69;40.11;103035.69;5023364;28;20092;-77